Time;durP1;ratioP1;P1;durP2;ratioP2;P2;SDS_P1;SDS_P2;PMS_P1;PMS_P2;Temp;Humidity;BMP_temperature;BMP_pressure;BME280_temperature;BME280_humidity;BME280_pressure;Samples;Min_cycle;Max_cycle;Signal;HPM_P1;HPM_P2
2023/07/15 00:00:23;;;;;;;6.30;3.15;;;21.80;85.20;;;;;;5090663;28;20513;-71
2023/07/15 00:02:51;;;;;;;5.68;2.95;;;21.70;85.30;;;;;;5090696;28;20417;-71
2023/07/15 00:05:35;;;;;;;5.28;2.58;;;21.80;85.30;;;;;;5093754;28;20059;-72
2023/07/15 00:08:05;;;;;;;4.97;2.90;;;21.70;85.00;;;;;;5081900;28;20068;-71
2023/07/15 00:10:33;;;;;;;5.50;2.28;;;21.70;85.30;;;;;;5074207;28;20502;-71
2023/07/15 00:12:59;;;;;;;6.07;3.10;;;21.70;85.40;;;;;;5092015;28;20521;-71
2023/07/15 00:15:25;;;;;;;4.50;2.47;;;21.60;85.30;;;;;;5091745;28;20047;-71
2023/07/15 00:17:52;;;;;;;8.07;2.78;;;21.60;85.40;;;;;;5092526;28;20036;-72
2023/07/15 00:20:19;;;;;;;6.10;2.70;;;21.60;85.40;;;;;;5077236;28;20532;-71
2023/07/15 00:22:45;;;;;;;5.78;3.17;;;21.60;85.50;;;;;;5073010;28;20052;-71
2023/07/15 00:25:17;;;;;;;5.15;2.70;;;21.60;85.50;;;;;;5072925;28;20072;-71
2023/07/15 00:27:44;;;;;;;6.90;2.80;;;21.60;85.50;;;;;;5072963;28;20044;-71
2023/07/15 00:30:19;;;;;;;6.00;2.78;;;21.50;85.50;;;;;;5055158;28;20337;-70
2023/07/15 00:32:50;;;;;;;5.50;2.55;;;21.50;85.30;;;;;;5071742;28;20131;-71
2023/07/15 00:35:18;;;;;;;6.25;2.90;;;21.50;85.40;;;;;;5092090;28;20048;-70
2023/07/15 00:37:44;;;;;;;6.60;2.70;;;21.40;85.40;;;;;;5091746;28;20493;-71
2023/07/15 00:40:10;;;;;;;6.45;2.80;;;21.40;85.30;;;;;;5091934;28;20048;-71
2023/07/15 00:43:13;;;;;;;5.45;2.75;;;21.40;85.20;;;;;;5092038;28;20511;-71
2023/07/15 00:45:39;;;;;;;4.90;2.47;;;21.40;84.80;;;;;;5091395;28;20055;-71
2023/07/15 00:48:15;;;;;;;5.35;2.45;;;21.40;85.30;;;;;;5073768;28;20052;-71
2023/07/15 00:50:42;;;;;;;4.97;2.45;;;21.30;84.90;;;;;;5072754;28;20041;-71
2023/07/15 00:53:12;;;;;;;6.65;3.05;;;21.30;85.10;;;;;;5073014;28;20044;-71
2023/07/15 00:55:38;;;;;;;7.38;2.67;;;21.30;84.70;;;;;;5085492;28;20043;-71
2023/07/15 00:58:04;;;;;;;8.77;2.60;;;21.30;84.60;;;;;;5073623;28;20048;-71
2023/07/15 01:00:31;;;;;;;7.82;3.00;;;21.30;84.50;;;;;;5075171;28;20120;-71
2023/07/15 01:02:57;;;;;;;6.57;2.85;;;21.30;84.40;;;;;;5092128;28;20052;-71
2023/07/15 01:05:22;;;;;;;5.55;2.47;;;21.30;84.60;;;;;;5091761;28;20139;-71
2023/07/15 01:07:48;;;;;;;6.68;2.78;;;21.20;84.70;;;;;;5091309;28;20579;-71
2023/07/15 01:10:15;;;;;;;5.55;2.53;;;21.20;84.70;;;;;;5091222;28;20062;-71
2023/07/15 01:12:40;;;;;;;8.82;2.88;;;21.20;84.80;;;;;;5082703;28;20440;-71
2023/07/15 01:15:06;;;;;;;6.72;2.47;;;21.20;84.40;;;;;;5076568;28;20477;-71
2023/07/15 01:17:32;;;;;;;9.20;2.55;;;21.20;84.10;;;;;;5078378;28;20131;-71
2023/07/15 01:19:58;;;;;;;6.07;2.30;;;21.20;83.90;;;;;;5076549;28;20124;-71
2023/07/15 01:22:25;;;;;;;5.20;2.40;;;21.10;84.10;;;;;;5076728;28;20090;-71
2023/07/15 01:24:51;;;;;;;8.50;3.17;;;21.10;83.80;;;;;;5089678;28;20039;-71
2023/07/15 01:27:16;;;;;;;5.07;2.50;;;21.20;83.70;;;;;;5096545;28;20432;-71
2023/07/15 01:29:43;;;;;;;6.13;2.78;;;21.20;83.80;;;;;;5076886;28;20116;-71
2023/07/15 01:32:09;;;;;;;6.03;2.78;;;21.20;83.60;;;;;;5095584;28;20036;-70
2023/07/15 01:34:36;;;;;;;7.40;2.72;;;21.10;83.30;;;;;;5095568;28;20148;-71
2023/07/15 01:37:01;;;;;;;5.55;2.58;;;21.20;83.60;;;;;;5096471;28;20520;-71
2023/07/15 01:39:27;;;;;;;6.85;2.75;;;21.20;83.40;;;;;;5096144;28;20052;-70
2023/07/15 01:41:53;;;;;;;6.68;2.50;;;21.10;83.10;;;;;;5096488;28;20048;-71
2023/07/15 01:44:18;;;;;;;4.53;2.30;;;21.10;83.00;;;;;;5095514;28;20044;-71
2023/07/15 01:46:44;;;;;;;7.80;2.50;;;21.10;83.40;;;;;;5095552;28;20044;-71
2023/07/15 01:49:10;;;;;;;7.78;2.55;;;21.10;83.40;;;;;;5095600;28;20040;-71
2023/07/15 01:51:35;;;;;;;8.48;2.55;;;21.10;83.10;;;;;;5096389;28;20577;-71
2023/07/15 01:54:01;;;;;;;6.90;2.65;;;21.10;83.00;;;;;;5096027;28;20044;-71
2023/07/15 01:56:27;;;;;;;7.10;2.53;;;21.10;83.10;;;;;;5095979;28;20145;-70
2023/07/15 01:58:53;;;;;;;4.68;2.40;;;21.10;83.30;;;;;;5077660;28;20036;-71
2023/07/15 02:01:18;;;;;;;5.72;2.55;;;21.10;83.40;;;;;;5095641;28;20047;-71
2023/07/15 02:03:45;;;;;;;6.38;2.40;;;21.10;83.40;;;;;;5095821;28;20044;-71
2023/07/15 02:06:11;;;;;;;5.30;2.63;;;21.10;83.40;;;;;;5095333;28;20051;-71
2023/07/15 02:08:36;;;;;;;6.03;2.15;;;21.10;83.60;;;;;;5095318;28;20052;-71
2023/07/15 02:11:02;;;;;;;10.35;2.70;;;21.10;83.30;;;;;;5076687;28;20047;-71
2023/07/15 02:13:28;;;;;;;5.78;2.20;;;21.10;83.40;;;;;;5094911;28;20484;-71
2023/07/15 02:15:53;;;;;;;7.97;2.60;;;21.10;83.20;;;;;;5077294;28;20040;-70
2023/07/15 02:18:21;;;;;;;7.20;2.38;;;21.10;83.10;;;;;;5095618;28;20036;-70
2023/07/15 02:20:49;;;;;;;7.53;2.50;;;21.10;83.30;;;;;;5095829;28;20040;-70
2023/07/15 02:23:15;;;;;;;6.18;2.40;;;21.10;83.40;;;;;;5094810;28;20048;-71
2023/07/15 02:25:40;;;;;;;6.03;2.47;;;21.10;83.20;;;;;;5095216;28;20496;-70
2023/07/15 02:28:06;;;;;;;7.47;2.40;;;21.00;83.40;;;;;;5058251;28;20052;-70
2023/07/15 02:30:32;;;;;;;5.95;2.47;;;21.00;83.50;;;;;;5083348;28;20050;-70
2023/07/15 02:32:58;;;;;;;4.88;2.13;;;21.00;83.70;;;;;;5094153;28;20145;-71
2023/07/15 02:35:23;;;;;;;5.55;2.20;;;21.00;83.80;;;;;;5094045;28;20048;-70
2023/07/15 02:37:49;;;;;;;7.35;2.40;;;21.00;83.60;;;;;;5075759;28;20044;-70
2023/07/15 02:40:15;;;;;;;6.57;2.55;;;21.00;84.30;;;;;;5094048;28;20048;-71
2023/07/15 02:42:41;;;;;;;4.80;2.20;;;21.00;84.00;;;;;;5096006;28;20044;-71
2023/07/15 02:45:11;;;;;;;7.55;2.42;;;21.00;83.90;;;;;;5089034;28;20040;-70
2023/07/15 02:47:39;;;;;;;6.97;2.38;;;21.00;83.70;;;;;;5076349;28;20052;-71
2023/07/15 02:50:07;;;;;;;5.32;2.25;;;20.90;83.60;;;;;;5088675;28;20060;-70
2023/07/15 02:52:35;;;;;;;6.30;2.50;;;20.90;83.80;;;;;;5094954;28;20432;-71
2023/07/15 02:55:02;;;;;;;5.32;2.08;;;20.90;83.70;;;;;;5075345;28;20052;-71
2023/07/15 02:57:28;;;;;;;7.53;2.47;;;20.90;83.60;;;;;;5094820;28;20436;-71
2023/07/15 02:59:55;;;;;;;5.97;2.58;;;20.90;83.60;;;;;;5094367;28;20051;-72
2023/07/15 03:02:21;;;;;;;4.38;2.25;;;20.90;83.60;;;;;;5075923;28;20075;-71
2023/07/15 03:04:47;;;;;;;6.05;2.40;;;20.90;83.90;;;;;;5076802;28;20082;-71
2023/07/15 03:07:13;;;;;;;6.18;2.30;;;20.80;83.60;;;;;;5094443;28;20106;-71
2023/07/15 03:09:40;;;;;;;4.97;2.30;;;20.80;83.90;;;;;;5076675;28;20048;-71
2023/07/15 03:12:06;;;;;;;4.00;2.00;;;20.80;84.00;;;;;;5094094;28;20112;-71
2023/07/15 03:14:32;;;;;;;5.38;2.40;;;20.80;84.40;;;;;;5094194;28;20516;-71
2023/07/15 03:16:57;;;;;;;4.55;1.95;;;20.70;84.30;;;;;;5094428;28;20052;-71
2023/07/15 03:19:23;;;;;;;5.43;2.35;;;20.70;84.30;;;;;;5094436;28;20059;-72
2023/07/15 03:21:49;;;;;;;4.43;2.03;;;20.70;84.00;;;;;;5075990;28;20044;-72
2023/07/15 03:24:14;;;;;;;6.18;1.92;;;20.70;84.50;;;;;;5076205;28;20051;-71
2023/07/15 03:26:40;;;;;;;4.65;2.03;;;20.60;84.40;;;;;;5093754;28;20039;-71
2023/07/15 03:29:08;;;;;;;5.50;1.77;;;20.60;84.20;;;;;;5094311;28;20496;-71
2023/07/15 03:31:34;;;;;;;5.05;2.35;;;20.60;84.20;;;;;;5093092;28;20043;-71
2023/07/15 03:34:00;;;;;;;4.35;2.33;;;20.60;84.40;;;;;;5094228;28;20058;-71
2023/07/15 03:36:26;;;;;;;6.00;2.30;;;20.60;84.30;;;;;;5094114;28;20134;-71
2023/07/15 03:38:51;;;;;;;5.32;2.33;;;20.60;84.20;;;;;;5094178;28;20055;-71
2023/07/15 03:41:17;;;;;;;3.97;1.92;;;20.50;84.10;;;;;;5093193;28;20455;-71
2023/07/15 03:43:43;;;;;;;3.38;1.70;;;20.50;84.50;;;;;;5093345;28;20047;-72
2023/07/15 03:46:09;;;;;;;9.18;2.30;;;20.50;84.30;;;;;;5093149;28;20032;-72
2023/07/15 03:48:34;;;;;;;5.85;2.20;;;20.50;83.90;;;;;;5075643;28;20060;-71
2023/07/15 03:51:00;;;;;;;5.03;2.25;;;20.50;84.50;;;;;;5093266;28;20042;-72
2023/07/15 03:53:25;;;;;;;4.93;2.15;;;20.50;84.60;;;;;;5094020;28;20055;-71
2023/07/15 03:55:51;;;;;;;7.20;2.20;;;20.50;84.90;;;;;;5093186;28;20040;-72
2023/07/15 03:58:17;;;;;;;8.80;2.15;;;20.40;84.20;;;;;;5093221;28;20497;-71
2023/07/15 04:00:42;;;;;;;8.98;1.92;;;20.40;83.90;;;;;;5093105;28;20084;-72
2023/07/15 04:03:08;;;;;;;5.57;1.95;;;20.40;84.10;;;;;;5093824;28;20129;-71
2023/07/15 04:05:33;;;;;;;4.45;1.90;;;20.40;84.00;;;;;;5075265;28;20402;-71
2023/07/15 04:07:59;;;;;;;5.90;1.83;;;20.40;84.60;;;;;;5075500;28;20102;-71
2023/07/15 04:10:26;;;;;;;7.80;2.20;;;20.30;84.80;;;;;;5075012;28;20080;-71
2023/07/15 04:12:51;;;;;;;10.85;2.40;;;20.30;84.60;;;;;;5093472;28;20044;-71
2023/07/15 04:15:17;;;;;;;6.25;2.25;;;20.30;84.50;;;;;;5093228;28;20391;-71
2023/07/15 04:17:43;;;;;;;5.43;2.03;;;20.30;84.90;;;;;;5071658;28;20041;-71
2023/07/15 04:20:15;;;;;;;6.55;2.00;;;20.30;85.00;;;;;;5093204;28;20047;-71
2023/07/15 04:22:41;;;;;;;4.53;2.00;;;20.20;84.90;;;;;;5092981;28;20118;-71
2023/07/15 04:25:07;;;;;;;5.25;2.00;;;20.20;85.00;;;;;;5093205;28;20040;-72
2023/07/15 04:27:33;;;;;;;3.97;1.85;;;20.20;85.00;;;;;;5092856;28;20042;-71
2023/07/15 04:29:59;;;;;;;4.38;1.75;;;20.20;85.30;;;;;;5093260;28;20032;-72
2023/07/15 04:32:24;;;;;;;4.95;2.00;;;20.20;85.20;;;;;;5092836;28;20044;-72
2023/07/15 04:34:50;;;;;;;5.85;1.75;;;20.20;85.50;;;;;;5071472;28;20473;-72
2023/07/15 04:37:20;;;;;;;5.88;2.17;;;20.20;85.60;;;;;;5062603;28;20037;-72
2023/07/15 04:39:45;;;;;;;5.07;1.98;;;20.20;85.40;;;;;;5087267;28;20036;-72
2023/07/15 04:42:11;;;;;;;4.95;1.98;;;20.20;85.60;;;;;;5091938;28;20100;-71
2023/07/15 04:44:36;;;;;;;6.40;2.20;;;20.20;85.80;;;;;;5092906;28;20113;-73
2023/07/15 04:47:02;;;;;;;6.07;2.15;;;20.20;85.80;;;;;;5092322;28;20055;-72
2023/07/15 04:49:28;;;;;;;5.45;2.30;;;20.20;85.70;;;;;;5074763;28;20056;-74
2023/07/15 04:51:54;;;;;;;6.63;2.17;;;20.10;85.80;;;;;;5092941;28;20090;-72
2023/07/15 04:54:20;;;;;;;6.30;2.10;;;20.20;86.00;;;;;;5092867;28;20092;-72
2023/07/15 04:56:45;;;;;;;5.07;1.90;;;20.20;86.00;;;;;;5092493;28;20040;-72
2023/07/15 04:59:11;;;;;;;6.38;2.08;;;20.20;86.30;;;;;;5075092;28;20393;-71
2023/07/15 05:01:37;;;;;;;6.53;2.38;;;20.20;86.20;;;;;;5057617;28;20058;-72
2023/07/15 05:04:03;;;;;;;5.32;2.20;;;20.20;86.20;;;;;;5075104;28;20055;-72
2023/07/15 05:06:29;;;;;;;9.00;2.28;;;20.20;86.10;;;;;;5092527;28;20079;-72
2023/07/15 05:08:55;;;;;;;6.85;2.03;;;20.20;86.80;;;;;;5093151;28;20135;-72
2023/07/15 05:11:21;;;;;;;7.38;2.42;;;20.20;86.80;;;;;;5072371;28;20546;-72
2023/07/15 05:13:46;;;;;;;8.93;2.28;;;20.20;86.90;;;;;;5092698;28;20128;-73
2023/07/15 05:16:14;;;;;;;5.13;1.73;;;20.20;87.10;;;;;;5092647;28;20040;-72
2023/07/15 05:18:40;;;;;;;4.90;2.28;;;20.20;86.60;;;;;;5092272;28;20048;-72
2023/07/15 05:21:06;;;;;;;9.15;2.22;;;20.20;86.70;;;;;;5092481;28;20127;-72
2023/07/15 05:23:32;;;;;;;4.97;1.90;;;20.20;86.90;;;;;;5092447;28;20124;-71
2023/07/15 05:26:01;;;;;;;5.15;2.40;;;20.30;86.60;;;;;;5074469;28;20409;-72
2023/07/15 05:28:30;;;;;;;9.10;1.88;;;20.20;86.90;;;;;;5092575;28;20105;-72
2023/07/15 05:31:03;;;;;;;5.95;2.10;;;20.30;87.00;;;;;;5070900;28;20494;-73
2023/07/15 05:33:29;;;;;;;5.65;2.17;;;20.20;87.00;;;;;;5084120;28;20043;-72
2023/07/15 05:35:56;;;;;;;5.75;2.00;;;20.30;87.30;;;;;;5073873;28;20085;-72
2023/07/15 05:38:26;;;;;;;6.20;2.03;;;20.30;87.10;;;;;;5092250;28;20055;-72
2023/07/15 05:40:55;;;;;;;8.73;2.25;;;20.40;86.80;;;;;;5074041;28;20052;-72
2023/07/15 05:43:21;;;;;;;6.15;2.35;;;20.40;87.30;;;;;;5073059;28;20048;-72
2023/07/15 05:45:47;;;;;;;4.95;2.25;;;20.40;87.40;;;;;;5091557;28;20123;-72
2023/07/15 05:48:13;;;;;;;9.05;2.88;;;20.50;87.80;;;;;;5069995;28;20502;-72
2023/07/15 05:50:39;;;;;;;6.68;2.35;;;20.50;88.00;;;;;;5088263;28;20044;-72
2023/07/15 05:53:06;;;;;;;8.20;2.63;;;20.50;88.10;;;;;;5091439;28;20048;-72
2023/07/15 05:55:33;;;;;;;4.80;2.00;;;20.50;87.80;;;;;;5093969;28;20040;-71
2023/07/15 05:57:59;;;;;;;5.47;2.17;;;20.60;87.70;;;;;;5076468;28;20405;-72
2023/07/15 06:00:25;;;;;;;8.60;2.13;;;20.60;87.60;;;;;;5095624;28;20040;-71
2023/07/15 06:02:50;;;;;;;5.82;2.28;;;20.60;87.80;;;;;;5074244;28;20512;-73
2023/07/15 06:05:16;;;;;;;5.15;2.13;;;20.70;88.00;;;;;;5095149;28;20044;-70
2023/07/15 06:07:42;;;;;;;7.78;2.60;;;20.70;87.50;;;;;;5094972;28;20043;-71
2023/07/15 06:10:07;;;;;;;4.90;2.28;;;20.80;88.30;;;;;;5093811;28;20036;-73
2023/07/15 06:12:33;;;;;;;6.80;2.30;;;20.80;88.60;;;;;;5094538;28;20085;-71
2023/07/15 06:14:59;;;;;;;6.88;2.38;;;20.80;88.10;;;;;;5095271;28;20081;-71
2023/07/15 06:17:24;;;;;;;7.82;2.15;;;20.90;88.40;;;;;;5089109;28;20127;-71
2023/07/15 06:19:50;;;;;;;7.95;2.10;;;20.90;88.80;;;;;;5040692;28;20071;-71
2023/07/15 06:22:16;;;;;;;4.60;2.05;;;21.00;89.40;;;;;;5075534;28;20090;-71
2023/07/15 06:24:41;;;;;;;6.15;2.00;;;21.10;89.10;;;;;;5075382;28;20082;-71
2023/07/15 06:27:07;;;;;;;5.63;2.40;;;21.10;88.90;;;;;;5078209;28;20048;-71
2023/07/15 06:29:33;;;;;;;5.88;2.03;;;21.20;89.50;;;;;;5095175;28;20051;-71
2023/07/15 06:31:58;;;;;;;8.10;2.03;;;21.30;89.80;;;;;;5095029;28;20424;-71
2023/07/15 06:34:24;;;;;;;9.23;2.05;;;21.30;90.10;;;;;;5095360;28;20044;-71
2023/07/15 06:36:50;;;;;;;5.10;2.05;;;21.30;89.90;;;;;;5095238;28;20401;-71
2023/07/15 06:39:15;;;;;;;9.70;2.47;;;21.40;89.70;;;;;;5077275;28;20444;-71
2023/07/15 06:41:41;;;;;;;5.07;2.08;;;21.50;90.30;;;;;;5090940;28;20040;-71
2023/07/15 06:44:06;;;;;;;9.85;2.20;;;21.50;90.40;;;;;;5075019;28;20382;-71
2023/07/15 06:46:32;;;;;;;6.10;2.30;;;21.60;90.50;;;;;;5077350;28;20109;-71
2023/07/15 06:48:58;;;;;;;6.60;2.22;;;21.70;90.60;;;;;;5091839;28;20052;-71
2023/07/15 06:51:23;;;;;;;6.90;2.20;;;21.70;90.80;;;;;;5089673;28;20043;-71
2023/07/15 06:53:49;;;;;;;6.43;1.80;;;21.80;90.60;;;;;;5061748;28;20044;-71
2023/07/15 06:56:15;;;;;;;6.97;2.20;;;21.90;90.40;;;;;;5093622;28;20506;-71
2023/07/15 06:58:40;;;;;;;10.07;2.30;;;22.00;90.50;;;;;;5092795;28;20386;-71
2023/07/15 07:01:06;;;;;;;7.60;1.90;;;22.00;90.50;;;;;;5092565;28;20051;-71
2023/07/15 07:03:33;;;;;;;5.63;1.98;;;22.10;90.70;;;;;;5093405;28;20036;-71
2023/07/15 07:05:58;;;;;;;6.78;2.20;;;22.20;90.60;;;;;;5093140;28;20050;-71
2023/07/15 07:08:24;;;;;;;5.60;2.10;;;22.20;90.50;;;;;;5094605;28;20036;-71
2023/07/15 07:10:51;;;;;;;6.35;2.63;;;22.30;90.70;;;;;;5075551;28;20040;-71
2023/07/15 07:13:17;;;;;;;6.43;1.83;;;22.40;90.50;;;;;;5093471;28;20043;-72
2023/07/15 07:15:43;;;;;;;7.13;1.90;;;22.50;90.40;;;;;;5091090;28;20124;-71
2023/07/15 07:18:08;;;;;;;4.88;1.80;;;22.50;90.30;;;;;;5093371;28;20075;-71
2023/07/15 07:20:34;;;;;;;6.53;1.73;;;22.60;90.10;;;;;;5075470;28;20405;-72
2023/07/15 07:22:59;;;;;;;5.80;2.10;;;22.70;89.90;;;;;;5081796;28;20039;-72
2023/07/15 07:25:25;;;;;;;5.63;1.90;;;22.80;89.90;;;;;;5092866;28;20040;-72
2023/07/15 07:27:51;;;;;;;5.47;1.90;;;22.80;90.10;;;;;;5093287;28;20040;-72
2023/07/15 07:30:16;;;;;;;4.65;1.83;;;22.90;89.90;;;;;;5093555;28;20143;-72
2023/07/15 07:32:42;;;;;;;6.38;1.88;;;22.90;89.80;;;;;;5094134;28;20036;-72
2023/07/15 07:35:08;;;;;;;7.97;1.92;;;23.00;89.80;;;;;;5059059;28;20048;-72
2023/07/15 07:37:34;;;;;;;4.57;1.83;;;23.00;89.60;;;;;;5075576;28;20043;-72
2023/07/15 07:40:00;;;;;;;6.55;1.65;;;23.10;89.10;;;;;;5093577;28;20515;-71
2023/07/15 07:42:25;;;;;;;5.53;1.85;;;23.20;88.60;;;;;;5093543;28;20075;-72
2023/07/15 07:44:51;;;;;;;6.20;1.98;;;23.20;88.40;;;;;;5093369;28;20436;-72
2023/07/15 07:47:16;;;;;;;5.50;1.90;;;23.30;88.10;;;;;;5093416;28;20093;-72
2023/07/15 07:49:42;;;;;;;6.63;1.90;;;23.30;88.30;;;;;;5093528;28;20405;-72
2023/07/15 07:52:08;;;;;;;6.15;1.85;;;23.40;88.20;;;;;;5094021;28;20493;-72
2023/07/15 07:54:33;;;;;;;5.68;1.70;;;23.50;88.00;;;;;;5093704;28;20086;-72
2023/07/15 07:56:59;;;;;;;6.97;2.08;;;23.60;88.40;;;;;;5093706;28;20173;-72
2023/07/15 07:59:25;;;;;;;5.15;1.90;;;23.60;88.60;;;;;;5093698;28;20169;-72
2023/07/15 08:01:51;;;;;;;11.35;2.67;;;23.70;87.90;;;;;;5075580;28;20032;-72
2023/07/15 08:04:16;;;;;;;8.20;1.92;;;23.80;88.00;;;;;;5042529;28;20052;-72
2023/07/15 08:06:42;;;;;;;5.75;1.70;;;23.80;87.80;;;;;;5093736;28;20046;-72
2023/07/15 08:09:08;;;;;;;6.72;1.90;;;23.80;87.50;;;;;;5093680;28;20054;-71
2023/07/15 08:11:33;;;;;;;6.55;1.73;;;23.80;87.30;;;;;;5093594;28;20043;-71
2023/07/15 08:13:59;;;;;;;5.45;1.65;;;23.80;87.30;;;;;;5093403;28;20046;-72
2023/07/15 08:16:29;;;;;;;10.23;2.28;;;23.80;87.50;;;;;;5075494;28;20040;-71
2023/07/15 08:18:56;;;;;;;4.25;1.77;;;23.80;87.80;;;;;;5093027;28;20044;-72
2023/07/15 08:21:22;;;;;;;5.72;1.75;;;23.90;88.70;;;;;;5093546;28;20076;-72
2023/07/15 08:23:47;;;;;;;8.55;2.22;;;23.90;88.80;;;;;;5093491;28;20480;-71
2023/07/15 08:26:13;;;;;;;7.50;2.30;;;23.90;88.90;;;;;;5093387;28;20051;-72
2023/07/15 08:28:39;;;;;;;5.05;1.88;;;24.00;89.70;;;;;;5093290;28;20051;-72
2023/07/15 08:31:04;;;;;;;4.32;2.25;;;24.00;89.00;;;;;;5093341;28;20113;-72
2023/07/15 08:33:30;;;;;;;6.35;2.50;;;24.10;88.70;;;;;;5093470;28;20044;-71
2023/07/15 08:35:55;;;;;;;4.03;1.58;;;24.20;88.80;;;;;;5093393;28;20048;-71
2023/07/15 08:38:24;;;;;;;4.72;1.73;;;24.30;88.30;;;;;;5092885;28;20032;-71
2023/07/15 08:40:51;;;;;;;2.67;1.17;;;24.40;88.00;;;;;;5092034;28;20070;-71
2023/07/15 08:43:19;;;;;;;6.95;1.60;;;24.50;87.70;;;;;;5092874;28;20055;-71
2023/07/15 08:45:46;;;;;;;2.97;1.23;;;24.60;87.60;;;;;;5091264;28;20044;-72
2023/07/15 08:48:12;;;;;;;5.00;1.58;;;24.60;87.80;;;;;;5074766;28;20055;-71
2023/07/15 08:50:39;;;;;;;4.20;1.38;;;24.70;87.20;;;;;;5093072;28;20125;-71
2023/07/15 08:53:04;;;;;;;5.35;1.50;;;24.80;87.40;;;;;;5071355;28;20505;-71
2023/07/15 08:55:30;;;;;;;4.82;1.48;;;24.90;87.10;;;;;;5093049;28;20052;-72
2023/07/15 08:57:59;;;;;;;6.63;1.58;;;24.90;86.50;;;;;;5092962;28;20115;-72
2023/07/15 09:00:25;;;;;;;4.75;1.50;;;25.00;86.00;;;;;;5092957;28;20115;-72
2023/07/15 09:02:52;;;;;;;4.55;1.38;;;25.10;85.90;;;;;;5092021;28;20123;-72
2023/07/15 09:05:18;;;;;;;4.55;1.45;;;25.10;85.70;;;;;;5092978;28;20048;-72
2023/07/15 09:07:53;;;;;;;4.97;1.70;;;25.10;85.10;;;;;;5092894;28;20062;-72
2023/07/15 09:10:19;;;;;;;3.40;1.25;;;25.10;85.70;;;;;;5091438;28;20051;-72
2023/07/15 09:12:54;;;;;;;4.38;1.40;;;25.10;85.20;;;;;;5091671;28;20036;-72
2023/07/15 09:15:20;;;;;;;4.60;1.40;;;25.20;85.30;;;;;;5092196;28;20032;-72
2023/07/15 09:17:57;;;;;;;4.18;1.65;;;25.20;85.40;;;;;;5092397;28;20047;-72
2023/07/15 09:20:24;;;;;;;8.30;2.03;;;25.20;86.60;;;;;;5091254;28;20079;-72
2023/07/15 09:23:01;;;;;;;4.45;1.70;;;25.30;86.20;;;;;;5091702;28;20071;-72
2023/07/15 09:25:27;;;;;;;8.65;1.83;;;25.30;85.80;;;;;;5092490;28;20058;-72
2023/07/15 09:27:53;;;;;;;5.28;1.60;;;25.30;86.30;;;;;;5092340;28;20806;-72
2023/07/15 09:30:19;;;;;;;5.35;1.52;;;25.30;86.60;;;;;;5094074;28;20088;-72
2023/07/15 09:32:46;;;;;;;6.68;1.98;;;25.40;86.10;;;;;;5095617;28;20044;-72
2023/07/15 09:35:13;;;;;;;4.65;1.52;;;25.40;85.90;;;;;;5096048;28;20028;-72
2023/07/15 09:37:39;;;;;;;5.05;1.50;;;25.50;86.20;;;;;;5095535;28;20052;-72
2023/07/15 09:40:08;;;;;;;5.82;1.95;;;25.60;86.20;;;;;;5094787;28;20047;-72
2023/07/15 09:42:54;;;;;;;4.57;1.65;;;25.70;85.60;;;;;;5092712;28;20047;-72
2023/07/15 09:45:36;;;;;;;5.32;1.80;;;25.70;85.00;;;;;;5094769;28;20105;-72
2023/07/15 09:48:04;;;;;;;4.53;1.88;;;25.80;85.10;;;;;;5096074;28;20105;-72
2023/07/15 09:50:33;;;;;;;5.65;2.00;;;25.80;85.30;;;;;;5095965;28;20113;-72
2023/07/15 09:53:00;;;;;;;4.63;2.05;;;25.90;84.50;;;;;;5095717;28;20119;-72
2023/07/15 09:55:29;;;;;;;6.07;2.10;;;25.90;84.30;;;;;;5094284;28;20079;-72
2023/07/15 09:58:21;;;;;;;5.00;1.77;;;25.90;84.60;;;;;;5095462;28;20105;-72
2023/07/15 10:01:02;;;;;;;4.10;1.70;;;26.00;85.00;;;;;;5094422;28;20043;-72
2023/07/15 10:04:00;;;;;;;5.68;2.30;;;26.10;84.90;;;;;;5078033;28;20441;-74
2023/07/15 10:06:26;;;;;;;5.43;2.17;;;26.10;84.00;;;;;;5095524;28;20056;-74
2023/07/15 10:08:52;;;;;;;7.60;2.35;;;26.20;83.80;;;;;;5092369;28;20044;-74
2023/07/15 10:11:18;;;;;;;4.82;1.70;;;26.30;84.60;;;;;;5094162;28;20059;-74
2023/07/15 10:13:44;;;;;;;5.00;1.98;;;26.40;85.20;;;;;;5094396;28;20115;-74
2023/07/15 10:16:10;;;;;;;4.68;1.80;;;26.40;83.40;;;;;;5094632;28;20075;-74
2023/07/15 10:18:35;;;;;;;5.93;1.90;;;26.50;83.70;;;;;;5074005;28;20047;-74
2023/07/15 10:21:03;;;;;;;5.88;1.67;;;26.60;82.80;;;;;;5075688;28;20517;-74
2023/07/15 10:23:31;;;;;;;5.63;1.77;;;26.60;82.20;;;;;;5057706;28;20123;-74
2023/07/15 10:26:08;;;;;;;6.65;1.80;;;26.60;82.40;;;;;;5080430;28;20048;-74
2023/07/15 10:28:55;;;;;;;4.43;1.80;;;26.60;83.20;;;;;;5083815;28;20123;-74
2023/07/15 10:31:24;;;;;;;5.10;1.77;;;26.70;83.60;;;;;;5074695;28;20044;-74
2023/07/15 10:33:56;;;;;;;4.60;1.70;;;26.80;84.10;;;;;;5084638;28;20047;-75
2023/07/15 10:36:35;;;;;;;;;;;26.80;82.60;;;;;;5089029;28;20055;-74
2023/07/15 10:39:19;;;;;;;8.43;1.60;;;26.80;82.70;;;;;;5084988;28;19927;-74
2023/07/15 10:41:55;;;;;;;7.13;2.13;;;26.90;82.30;;;;;;5094202;28;20055;-74
2023/07/15 10:44:25;;;;;;;7.10;1.67;;;27.00;82.70;;;;;;5094522;28;20101;-74
2023/07/15 10:47:00;;;;;;;5.10;1.42;;;27.10;81.00;;;;;;5092866;28;20062;-74
2023/07/15 10:49:27;;;;;;;3.33;1.30;;;27.10;81.20;;;;;;5064385;28;20390;-74
2023/07/15 10:51:54;;;;;;;4.47;1.67;;;27.10;80.00;;;;;;5076885;28;20040;-74
2023/07/15 10:54:22;;;;;;;4.40;1.50;;;27.10;79.50;;;;;;5088597;28;20383;-73
2023/07/15 10:56:48;;;;;;;5.35;1.50;;;27.10;79.30;;;;;;5093906;28;20113;-73
2023/07/15 10:59:14;;;;;;;5.82;1.35;;;27.10;79.80;;;;;;5089742;28;20481;-73
2023/07/15 11:01:41;;;;;;;4.05;1.20;;;27.10;78.90;;;;;;5093652;28;20052;-73
2023/07/15 11:04:07;;;;;;;4.13;1.10;;;27.10;78.90;;;;;;5089201;28;20512;-73
2023/07/15 11:06:34;;;;;;;6.63;1.38;;;27.10;79.10;;;;;;5086695;28;20045;-73
2023/07/15 11:09:16;;;;;;;7.82;1.10;;;27.10;78.70;;;;;;5087948;28;20051;-73
2023/07/15 11:11:42;;;;;;;22.42;1.80;;;27.10;76.80;;;;;;5085867;28;20581;-75
2023/07/15 11:14:21;;;;;;;10.00;1.30;;;27.10;76.60;;;;;;5087927;28;20050;-74
2023/07/15 11:16:50;;;;;;;7.00;1.40;;;27.10;75.40;;;;;;5080881;28;20463;-73
2023/07/15 11:19:35;;;;;;;3.33;1.00;;;27.10;76.60;;;;;;5090579;28;20085;-72
2023/07/15 11:22:07;;;;;;;4.05;0.88;;;27.10;76.80;;;;;;5093639;28;20040;-73
2023/07/15 11:24:34;;;;;;;5.88;1.10;;;27.10;76.10;;;;;;5080236;28;20536;-73
2023/07/15 11:27:01;;;;;;;11.80;1.63;;;27.10;76.70;;;;;;5087381;28;20048;-73
2023/07/15 11:29:26;;;;;;;4.75;1.20;;;27.20;77.70;;;;;;5094212;28;20044;-72
2023/07/15 11:31:54;;;;;;;10.48;1.20;;;27.20;79.80;;;;;;5087437;28;20431;-73
2023/07/15 11:34:22;;;;;;;4.82;1.20;;;27.20;78.00;;;;;;5085999;28;20063;-73
2023/07/15 11:36:50;;;;;;;2.65;1.15;;;27.20;77.10;;;;;;5071332;28;20067;-73
2023/07/15 11:39:16;;;;;;;4.63;1.17;;;27.20;77.60;;;;;;5088392;28;20516;-73
2023/07/15 11:41:43;;;;;;;3.70;1.30;;;27.20;77.40;;;;;;5093515;28;20048;-73
2023/07/15 11:44:11;;;;;;;3.95;1.20;;;27.20;79.50;;;;;;5085197;28;20115;-74
2023/07/15 11:46:41;;;;;;;3.65;1.25;;;27.30;80.70;;;;;;5086901;28;20421;-72
2023/07/15 11:49:09;;;;;;;4.07;1.27;;;27.20;79.70;;;;;;5089071;28;20501;-73
2023/07/15 11:51:36;;;;;;;6.40;1.42;;;27.30;79.60;;;;;;5100885;28;20444;-73
2023/07/15 11:54:11;;;;;;;4.47;1.33;;;27.30;79.60;;;;;;5098302;28;20048;-73
2023/07/15 11:56:39;;;;;;;4.80;1.30;;;27.30;80.00;;;;;;5075511;28;20058;-73
2023/07/15 11:59:08;;;;;;;5.85;1.50;;;27.30;79.00;;;;;;5074395;28;20470;-73
2023/07/15 12:01:34;;;;;;;5.57;1.35;;;27.30;79.30;;;;;;5089138;28;20044;-74
2023/07/15 12:04:00;;;;;;;5.00;1.48;;;27.30;78.70;;;;;;5087444;28;20047;-73
2023/07/15 12:06:27;;;;;;;6.07;1.50;;;27.30;81.00;;;;;;5067439;28;20033;-73
2023/07/15 12:09:09;;;;;;;3.92;1.15;;;27.30;80.00;;;;;;5085328;28;20472;-73
2023/07/15 12:11:36;;;;;;;3.77;1.53;;;27.40;79.60;;;;;;5085834;28;22421;-74
2023/07/15 12:14:07;;;;;;;6.53;1.30;;;27.30;78.50;;;;;;5087954;28;20043;-74
2023/07/15 12:16:35;;;;;;;4.72;1.23;;;27.40;79.00;;;;;;5086025;28;20520;-73
2023/07/15 12:19:01;;;;;;;8.02;1.40;;;27.40;78.70;;;;;;5069894;28;20101;-73
2023/07/15 12:21:27;;;;;;;9.90;1.25;;;27.50;77.90;;;;;;5085388;28;20040;-73
2023/07/15 12:23:55;;;;;;;3.58;1.30;;;27.50;78.10;;;;;;5087464;28;20032;-73
2023/07/15 12:26:20;;;;;;;3.10;1.20;;;27.50;80.00;;;;;;5084159;28;20032;-73
2023/07/15 12:28:46;;;;;;;4.60;1.35;;;27.60;79.80;;;;;;5086854;28;20040;-73
2023/07/15 12:31:13;;;;;;;7.80;1.48;;;27.60;79.60;;;;;;5086491;28;20440;-73
2023/07/15 12:33:40;;;;;;;9.55;1.50;;;27.70;77.60;;;;;;5085693;28;20044;-73
2023/07/15 12:36:09;;;;;;;5.72;1.45;;;27.70;76.40;;;;;;5087677;28;20060;-74
2023/07/15 12:38:35;;;;;;;4.63;1.27;;;27.70;75.30;;;;;;5084063;28;20044;-73
2023/07/15 12:41:03;;;;;;;7.95;1.48;;;27.70;76.60;;;;;;5087259;28;20039;-74
2023/07/15 12:43:29;;;;;;;6.05;1.40;;;27.60;76.70;;;;;;5084966;28;20082;-75
2023/07/15 12:45:55;;;;;;;6.78;1.38;;;27.60;76.00;;;;;;5084875;28;20059;-75
2023/07/15 12:48:20;;;;;;;6.40;1.30;;;27.70;76.10;;;;;;5085391;28;20060;-75